Time;durP1;ratioP1;P1;durP2;ratioP2;P2;SDS_P1;SDS_P2;PMS_P1;PMS_P2;Temp;Humidity;BMP_temperature;BMP_pressure;BME280_temperature;BME280_humidity;BME280_pressure;Samples;Min_cycle;Max_cycle;Signal;HPM_P1;HPM_P2
2021/11/02 00:01:56;;;;;;;3.77;2.77;;;11.60;99.90;;;;;;5058024;23;20491;-55
2021/11/02 00:04:22;;;;;;;3.83;3.10;;;11.60;99.90;;;;;;5050731;28;20490;-58
2021/11/02 00:06:50;;;;;;;4.27;2.50;;;11.60;99.90;;;;;;5057668;23;20488;-59
2021/11/02 00:09:24;;;;;;;3.77;2.50;;;11.60;99.90;;;;;;5050564;28;20475;-57
2021/11/02 00:11:52;;;;;;;3.47;2.50;;;11.60;99.90;;;;;;5071544;23;20499;-61
2021/11/02 00:14:27;;;;;;;3.80;2.80;;;11.60;99.90;;;;;;5051700;28;20558;-60
2021/11/02 00:16:58;;;;;;;11.10;3.60;;;11.60;99.90;;;;;;5061804;23;20464;-57
2021/11/02 00:19:27;;;;;;;11.13;5.43;;;11.60;99.90;;;;;;5054630;28;20515;-64
2021/11/02 00:22:03;;;;;;;10.63;5.30;;;11.60;99.90;;;;;;5091345;23;20502;-56
2021/11/02 00:24:49;;;;;;;9.40;4.10;;;11.60;99.90;;;;;;5054886;28;20454;-57
2021/11/02 00:27:16;;;;;;;13.33;4.13;;;11.60;99.90;;;;;;5061702;23;20554;-63
2021/11/02 00:29:43;;;;;;;11.87;4.97;;;11.60;99.90;;;;;;5054308;28;20444;-62
2021/11/02 00:32:18;;;;;;;7.33;4.23;;;11.60;99.90;;;;;;5060815;23;20552;-60
2021/11/02 00:34:45;;;;;;;7.20;3.60;;;11.50;99.90;;;;;;5054504;28;20428;-61
2021/11/02 00:37:14;;;;;;;11.30;3.90;;;11.60;99.90;;;;;;5061404;23;20480;-61
2021/11/02 00:39:41;;;;;;;6.73;3.83;;;11.60;99.90;;;;;;5054212;28;20474;-61
2021/11/02 00:42:08;;;;;;;5.60;3.73;;;11.60;99.90;;;;;;5060471;23;20494;-59
2021/11/02 00:44:36;;;;;;;7.23;3.53;;;11.60;99.90;;;;;;5053283;28;20467;-61
2021/11/02 00:47:04;;;;;;;10.47;3.60;;;11.60;99.90;;;;;;5061186;23;20447;-57
2021/11/02 00:49:32;;;;;;;6.20;2.80;;;11.60;99.90;;;;;;5054212;28;20451;-58
2021/11/02 00:54:30;;;;;;;4.17;2.97;;;11.60;99.90;;;;;;5058563;23;20826;-58
2021/11/02 00:56:57;;;;;;;5.23;3.23;;;11.60;99.90;;;;;;5053733;28;20476;-58
2021/11/02 00:59:26;;;;;;;3.80;2.93;;;11.60;99.90;;;;;;5076016;23;20491;-60
2021/11/02 01:01:55;;;;;;;4.87;3.10;;;11.60;99.90;;;;;;5053715;28;20872;-64
2021/11/02 01:04:22;;;;;;;4.27;3.17;;;11.60;99.90;;;;;;5060513;23;20523;-63
2021/11/02 01:06:49;;;;;;;5.20;3.10;;;11.60;99.90;;;;;;5052683;28;20475;-62
2021/11/02 01:09:19;;;;;;;10.33;3.90;;;11.50;99.90;;;;;;5038529;23;1046761;-59
2021/11/02 01:11:48;;;;;;;5.83;3.20;;;11.50;99.90;;;;;;5053824;28;20205;-62
2021/11/02 01:14:24;;;;;;;8.60;3.90;;;11.50;99.90;;;;;;5090741;23;20484;-60
2021/11/02 01:16:51;;;;;;;5.13;3.43;;;11.50;99.90;;;;;;5054128;28;20424;-58
2021/11/02 01:19:18;;;;;;;6.80;3.97;;;11.50;99.90;;;;;;5061235;23;20472;-59
2021/11/02 01:21:49;;;;;;;6.90;3.23;;;11.50;99.90;;;;;;5053933;28;20464;-61
2021/11/02 01:24:17;;;;;;;4.60;2.37;;;11.50;99.90;;;;;;5060574;23;20476;-58
2021/11/02 01:26:44;;;;;;;6.60;4.10;;;11.60;99.90;;;;;;5052198;28;20468;-58
2021/11/02 01:29:12;;;;;;;6.50;3.30;;;11.60;99.90;;;;;;5074805;23;20586;-64
2021/11/02 01:31:39;;;;;;;6.40;3.20;;;11.50;99.90;;;;;;5054240;28;20432;-64
2021/11/02 01:34:06;;;;;;;4.40;2.87;;;11.50;99.90;;;;;;5060659;23;20539;-62
2021/11/02 01:36:32;;;;;;;7.00;2.80;;;11.50;99.90;;;;;;5053482;28;20486;-64
2021/11/02 01:39:01;;;;;;;5.17;3.10;;;11.40;99.90;;;;;;5060675;23;20448;-60
2021/11/02 01:41:28;;;;;;;6.47;3.67;;;11.50;99.90;;;;;;5060224;23;20491;-56
2021/11/02 01:43:57;;;;;;;4.90;2.83;;;11.50;99.90;;;;;;5053874;28;20452;-58
2021/11/02 01:46:27;;;;;;;4.40;2.60;;;11.50;99.90;;;;;;5089038;23;20491;-63
2021/11/02 01:48:55;;;;;;;5.73;3.30;;;11.50;99.90;;;;;;5053305;28;20424;-60
2021/11/02 01:51:23;;;;;;;4.73;3.43;;;11.40;99.90;;;;;;5074814;23;20527;-57
2021/11/02 01:53:50;;;;;;;4.63;3.70;;;11.30;99.90;;;;;;5052610;28;20534;-59
2021/11/02 01:56:21;;;;;;;6.00;4.90;;;11.40;99.90;;;;;;5074593;23;20518;-58
2021/11/02 01:58:52;;;;;;;3.80;2.93;;;11.40;99.90;;;;;;5052968;28;20464;-65
2021/11/02 02:01:35;;;;;;;6.60;4.00;;;11.50;99.90;;;;;;5059669;23;20551;-61
2021/11/02 02:04:28;;;;;;;4.80;3.60;;;11.50;99.90;;;;;;5053065;28;20464;-62
2021/11/02 02:07:12;;;;;;;4.20;3.30;;;11.50;99.90;;;;;;5073707;23;20504;-57
2021/11/02 02:09:44;;;;;;;12.20;4.20;;;11.50;99.90;;;;;;5053090;28;20472;-62
2021/11/02 02:12:26;;;;;;;6.27;3.07;;;11.50;99.90;;;;;;5073952;23;20526;-59
2021/11/02 02:15:02;;;;;;;5.17;3.53;;;11.50;99.90;;;;;;5053035;28;20432;-62
2021/11/02 02:17:38;;;;;;;7.13;3.33;;;11.50;99.90;;;;;;5059615;23;20472;-56
2021/11/02 02:20:08;;;;;;;7.40;3.60;;;11.50;99.90;;;;;;5052405;28;20444;-54
2021/11/02 02:22:54;;;;;;;4.80;3.50;;;11.50;99.90;;;;;;5059095;23;20488;-64
2021/11/02 02:25:36;;;;;;;5.20;3.93;;;11.50;99.90;;;;;;5052165;28;20408;-60
2021/11/02 02:28:16;;;;;;;9.97;3.90;;;11.40;99.90;;;;;;5058730;23;20484;-65
2021/11/02 02:30:47;;;;;;;3.87;3.37;;;11.50;99.90;;;;;;5051898;28;20462;-58
2021/11/02 02:33:15;;;;;;;4.70;4.00;;;11.50;99.90;;;;;;5058457;23;20484;-57
2021/11/02 02:35:44;;;;;;;6.77;4.10;;;11.50;99.90;;;;;;5051795;28;20457;-65
2021/11/02 02:38:12;;;;;;;5.13;3.17;;;11.50;99.90;;;;;;5072185;23;20553;-65
2021/11/02 02:40:41;;;;;;;4.93;3.50;;;11.50;99.90;;;;;;5051560;28;20460;-67
2021/11/02 02:43:10;;;;;;;6.17;3.90;;;11.50;99.90;;;;;;5074053;23;20914;-55
2021/11/02 02:45:39;;;;;;;4.03;3.37;;;11.50;99.90;;;;;;5051544;28;20460;-62
2021/11/02 02:48:08;;;;;;;4.70;3.53;;;11.50;99.90;;;;;;5059440;23;20484;-61
2021/11/02 02:50:35;;;;;;;5.13;3.37;;;11.50;99.90;;;;;;5051863;28;20448;-64
2021/11/02 02:53:03;;;;;;;8.10;4.77;;;11.50;99.90;;;;;;5074053;23;20472;-59
2021/11/02 02:55:32;;;;;;;6.60;3.80;;;11.50;99.90;;;;;;5052780;28;20459;-58
2021/11/02 02:58:01;;;;;;;8.50;5.40;;;11.50;99.90;;;;;;5088506;23;20451;-64
2021/11/02 03:00:32;;;;;;;6.60;3.33;;;11.40;99.90;;;;;;5051976;28;20440;-61
2021/11/02 03:03:02;;;;;;;7.63;4.27;;;11.40;99.90;;;;;;5061153;23;20428;31
2021/11/02 03:05:30;;;;;;;5.80;3.50;;;11.40;99.90;;;;;;4990797;28;20526;-64
2021/11/02 03:08:00;;;;;;;11.37;5.67;;;11.40;99.90;;;;;;4993326;28;20447;-64
2021/11/02 03:10:27;;;;;;;6.90;4.50;;;11.40;99.90;;;;;;5052511;23;20472;-54
2021/11/02 03:13:03;;;;;;;4.33;3.13;;;11.40;99.90;;;;;;5051656;28;20525;-59
2021/11/02 03:18:27;;;;;;;9.63;3.80;;;11.40;99.90;;;;;;5048813;28;20510;-62
2021/11/02 03:51:07;;;;;;;6.40;3.83;;;11.40;99.90;;;;;;5062189;23;20567;-59
2021/11/02 03:56:34;;;;;;;5.20;4.27;;;11.30;99.90;;;;;;5057547;23;20495;-62
2021/11/02 03:59:31;;;;;;;6.63;3.90;;;11.40;99.90;;;;;;5050587;28;20471;-56
2021/11/02 04:22:16;;;;;;;4.00;3.23;;;11.30;99.90;;;;;;5057867;23;21275;-63
2021/11/02 04:25:25;;;;;;;6.73;5.10;;;11.40;99.90;;;;;;5051838;28;20467;-65
2021/11/02 05:47:33;;;;;;;15.20;6.00;;;11.30;99.90;;;;;;5058661;23;20976;-55
2021/11/02 05:50:08;;;;;;;8.93;4.40;;;11.30;99.90;;;;;;5052952;28;20452;-60
2021/11/02 05:58:08;;;;;;;12.43;6.00;;;11.30;99.90;;;;;;5075433;23;20490;-59
2021/11/02 06:03:29;;;;;;;10.27;5.57;;;11.20;99.90;;;;;;5060359;23;20476;-54
2021/11/02 06:28:24;;;;;;;9.50;6.23;;;11.20;99.90;;;;;;5048007;23;20525;-62
2021/11/02 06:30:59;;;;;;;12.93;6.80;;;11.20;99.90;;;;;;5044424;28;20464;-64
2021/11/02 06:33:36;;;;;;;11.83;6.50;;;11.20;99.90;;;;;;5046106;23;20490;-57
2021/11/02 06:45:01;;;;;;;11.50;6.53;;;11.20;99.90;;;;;;5045363;23;20541;-63
2021/11/02 06:50:30;;;;;;;8.73;6.57;;;11.20;99.90;;;;;;5043476;23;20498;-65
2021/11/02 06:53:16;;;;;;;9.53;5.77;;;11.20;99.90;;;;;;5038861;28;20921;-63
2021/11/02 07:15:54;;;;;;;12.93;6.77;;;11.00;99.90;;;;;;5052303;23;20545;-59
2021/11/02 07:18:22;;;;;;;12.50;4.97;;;11.00;99.90;;;;;;5038274;28;20515;-64
2021/11/02 07:20:59;;;;;;;16.00;7.40;;;11.00;99.90;;;;;;5045438;23;20436;-62
2021/11/02 07:23:36;;;;;;;15.00;7.00;;;11.00;99.90;;;;;;5037859;28;20885;-65
2021/11/02 07:26:23;;;;;;;15.90;6.40;;;11.00;99.90;;;;;;5045598;23;20495;-67
2021/11/02 08:47:32;;;;;;;14.63;7.47;;;11.40;99.90;;;;;;5041685;28;20424;-63
2021/11/02 08:50:04;;;;;;;20.03;8.53;;;11.40;99.90;;;;;;5041634;28;20811;-62
2021/11/02 08:52:32;;;;;;;15.27;8.07;;;11.50;99.90;;;;;;5041691;28;20432;-63
2021/11/02 08:54:59;;;;;;;16.77;8.13;;;11.50;99.90;;;;;;5041298;28;20501;-63
2021/11/02 08:57:27;;;;;;;12.10;7.67;;;11.50;99.90;;;;;;5041576;28;20466;-61
2021/11/02 08:59:55;;;;;;;10.50;6.70;;;11.50;99.90;;;;;;5040846;28;20471;-65
2021/11/02 09:02:29;;;;;;;11.97;7.03;;;11.50;99.90;;;;;;5041558;28;20462;-59
2021/11/02 09:05:05;;;;;;;14.43;7.40;;;11.50;99.90;;;;;;5041069;28;20468;-64
2021/11/02 09:07:32;;;;;;;13.67;7.50;;;11.50;99.90;;;;;;5039576;28;20432;-69
2021/11/02 09:10:06;;;;;;;12.13;6.63;;;11.50;99.90;;;;;;5039493;28;20464;-69
2021/11/02 09:12:33;;;;;;;18.23;9.03;;;11.50;99.90;;;;;;5039599;28;20431;-68
2021/11/02 09:15:02;;;;;;;17.17;10.47;;;11.60;99.90;;;;;;5040033;28;20483;-69
2021/11/02 09:17:32;;;;;;;15.80;9.40;;;11.60;99.90;;;;;;5041758;28;20500;-70
2021/11/02 09:20:01;;;;;;;19.17;10.50;;;11.50;99.90;;;;;;5041115;28;20522;-68
2021/11/02 09:22:31;;;;;;;23.60;10.47;;;11.60;99.90;;;;;;5040427;28;20476;-70
2021/11/02 09:24:58;;;;;;;22.77;10.40;;;11.60;99.90;;;;;;5039560;28;20503;-64
2021/11/02 09:27:25;;;;;;;17.17;9.37;;;11.60;99.90;;;;;;5039437;28;20455;-69
2021/11/02 09:29:52;;;;;;;20.50;11.50;;;11.70;99.90;;;;;;5039431;28;20436;-69
2021/11/02 09:32:19;;;;;;;19.70;11.00;;;11.70;99.90;;;;;;5038972;28;20510;-69
2021/11/02 09:34:46;;;;;;;17.57;10.20;;;11.80;99.90;;;;;;5039195;28;20475;-62
2021/11/02 09:37:18;;;;;;;26.63;11.23;;;11.90;99.90;;;;;;5039400;28;20772;-66
2021/11/02 09:39:50;;;;;;;20.23;11.20;;;11.90;99.90;;;;;;5039687;28;20552;-62
2021/11/02 09:42:49;;;;;;;24.73;11.60;;;12.00;99.90;;;;;;5039252;28;20424;-70
2021/11/02 09:45:41;;;;;;;17.83;10.37;;;12.00;99.90;;;;;;5041232;28;20548;-70
2021/11/02 09:48:49;;;;;;;22.80;10.50;;;12.10;99.90;;;;;;5037846;28;20510;-68
2021/11/02 09:51:44;;;;;;;19.23;9.77;;;12.20;99.90;;;;;;5038992;28;20479;-67
2021/11/02 09:54:51;;;;;;;22.83;11.77;;;12.20;99.90;;;;;;5038926;28;20482;-68
2021/11/02 09:57:45;;;;;;;15.20;9.83;;;12.20;99.90;;;;;;5030146;28;20925;-69
2021/11/02 10:00:25;;;;;;;18.00;10.10;;;12.20;99.90;;;;;;5039945;28;20935;-71
2021/11/02 10:03:37;;;;;;;14.97;9.27;;;12.10;99.90;;;;;;5039778;28;20432;-70
2021/11/02 10:06:30;;;;;;;19.73;10.07;;;12.10;99.90;;;;;;5038698;28;20444;-69
2021/11/02 10:09:05;;;;;;;18.40;9.37;;;12.20;99.90;;;;;;5038003;28;20785;-69
2021/11/02 10:11:39;;;;;;;12.77;8.07;;;12.20;99.90;;;;;;5037871;28;20482;-70
2021/11/02 10:14:29;;;;;;;12.83;7.63;;;12.20;99.90;;;;;;5038468;28;20542;-63
2021/11/02 10:17:07;;;;;;;13.10;8.87;;;12.30;99.90;;;;;;5037466;28;20479;-69
2021/11/02 10:20:02;;;;;;;13.63;7.73;;;12.20;99.90;;;;;;5038051;28;20462;-68
2021/11/02 10:23:02;;;;;;;16.50;9.07;;;12.20;99.90;;;;;;5038588;28;20432;-69
2021/11/02 10:26:00;;;;;;;14.17;8.40;;;12.10;99.90;;;;;;5039050;28;20428;-70
2021/11/02 10:29:07;;;;;;;16.47;8.63;;;12.10;99.90;;;;;;5039917;28;20486;-71
2021/11/02 10:31:42;;;;;;;12.90;8.30;;;12.20;99.90;;;;;;5026664;28;20460;-64
2021/11/02 10:34:11;;;;;;;12.40;7.67;;;12.20;99.90;;;;;;5038253;28;20549;-70
2021/11/02 10:36:52;;;;;;;11.67;7.90;;;12.30;99.90;;;;;;5037662;28;20791;-68
2021/11/02 10:39:29;;;;;;;16.23;7.47;;;12.30;99.90;;;;;;5037947;28;20500;-68
2021/11/02 10:42:10;;;;;;;15.27;8.33;;;12.30;99.90;;;;;;5038048;28;20436;-68
2021/11/02 10:44:43;;;;;;;12.97;7.03;;;12.40;99.90;;;;;;5037501;28;20490;-70
2021/11/02 10:47:19;;;;;;;11.93;8.77;;;12.50;99.90;;;;;;5037552;28;20433;-67
2021/11/02 10:50:05;;;;;;;11.70;7.20;;;12.60;99.90;;;;;;5037540;28;20432;-67
2021/11/02 10:52:33;;;;;;;9.90;7.93;;;12.80;99.90;;;;;;5037131;28;20499;-69
2021/11/02 10:55:23;;;;;;;14.17;7.60;;;12.90;99.90;;;;;;5037426;28;20479;-66
2021/11/02 10:58:22;;;;;;;12.80;6.10;;;13.00;99.90;;;;;;5039195;28;20468;-69
2021/11/02 11:00:50;;;;;;;11.00;7.20;;;13.10;99.90;;;;;;5037482;28;20788;-71
2021/11/02 11:03:20;;;;;;;10.57;7.10;;;13.20;99.90;;;;;;5036938;28;20475;-66
2021/11/02 11:05:47;;;;;;;11.33;7.47;;;13.10;99.90;;;;;;5036949;28;20444;-70
2021/11/02 11:08:16;;;;;;;13.37;7.80;;;13.10;99.90;;;;;;5036760;28;20490;-69
2021/11/02 11:10:44;;;;;;;24.00;11.30;;;13.10;99.90;;;;;;5037062;28;20444;-65
2021/11/02 11:13:13;;;;;;;12.07;7.30;;;13.10;99.90;;;;;;5037088;28;20522;-70
2021/11/02 11:15:43;;;;;;;7.53;6.43;;;13.10;99.90;;;;;;5037412;28;20464;-68
2021/11/02 11:18:11;;;;;;;8.90;6.70;;;13.10;99.90;;;;;;5039246;28;20913;-66
2021/11/02 11:20:40;;;;;;;7.43;6.40;;;13.20;99.90;;;;;;5036982;28;20963;-69
2021/11/02 11:23:09;;;;;;;11.20;6.97;;;13.20;99.90;;;;;;5036817;28;20480;-70
2021/11/02 11:25:44;;;;;;;15.30;6.20;;;13.20;99.90;;;;;;5036547;28;20475;-68
2021/11/02 11:28:14;;;;;;;10.73;6.40;;;13.20;99.90;;;;;;5036494;28;20486;-69
2021/11/02 11:30:42;;;;;;;9.93;6.47;;;13.30;99.90;;;;;;5036110;28;20859;-68
2021/11/02 11:33:11;;;;;;;6.40;5.20;;;13.40;99.90;;;;;;5035979;28;20433;-69
2021/11/02 11:35:40;;;;;;;8.03;5.30;;;13.50;99.90;;;;;;5036190;28;20488;-68
2021/11/02 11:38:09;;;;;;;6.13;4.60;;;13.60;99.90;;;;;;5036491;28;20456;-66
2021/11/02 11:40:37;;;;;;;7.30;6.20;;;13.60;99.90;;;;;;5036124;28;20913;-69
2021/11/02 11:43:06;;;;;;;7.67;5.70;;;13.70;99.90;;;;;;5036940;28;20428;-72
2021/11/02 11:45:37;;;;;;;9.67;5.17;;;13.80;99.90;;;;;;5037787;28;20443;-70
2021/11/02 11:48:06;;;;;;;10.23;6.57;;;13.70;99.90;;;;;;5036758;28;20428;-69
2021/11/02 11:50:34;;;;;;;10.50;5.73;;;13.60;99.90;;;;;;5035932;28;20519;-69
2021/11/02 11:53:03;;;;;;;8.03;6.40;;;13.50;99.90;;;;;;5035982;28;20475;-68
2021/11/02 11:55:32;;;;;;;12.23;6.27;;;13.40;99.90;;;;;;5035930;28;20488;-61
2021/11/02 11:58:08;;;;;;;7.33;5.90;;;13.30;99.90;;;;;;5035754;28;20533;-70
2021/11/02 12:00:37;;;;;;;11.83;6.63;;;13.20;99.90;;;;;;5035881;28;20438;-71
2021/11/02 12:03:09;;;;;;;9.37;6.90;;;13.20;99.90;;;;;;5036523;28;20558;-68
2021/11/02 12:05:43;;;;;;;12.50;6.27;;;13.10;99.90;;;;;;5037153;28;20448;-72
2021/11/02 12:08:17;;;;;;;8.07;5.87;;;13.00;99.90;;;;;;5038866;28;20432;-73
2021/11/02 12:10:45;;;;;;;9.40;6.10;;;12.90;99.90;;;;;;5039334;28;20490;-68
2021/11/02 12:13:13;;;;;;;15.67;6.13;;;13.00;99.90;;;;;;5040449;28;20749;-69
2021/11/02 12:15:51;;;;;;;15.60;5.60;;;13.10;99.90;;;;;;5040247;28;20479;-65
2021/11/02 12:18:20;;;;;;;6.30;5.10;;;13.20;99.90;;;;;;5039020;28;20455;-65
2021/11/02 12:20:50;;;;;;;8.33;5.70;;;13.20;99.90;;;;;;5040064;28;20468;-69
2021/11/02 12:23:35;;;;;;;7.10;5.10;;;13.30;99.90;;;;;;5040285;28;20719;-66
2021/11/02 12:26:02;;;;;;;11.70;6.30;;;13.30;99.90;;;;;;5039660;28;20464;-68
2021/11/02 12:28:33;;;;;;;11.30;6.60;;;13.30;99.90;;;;;;5040037;28;20440;-66
2021/11/02 12:31:02;;;;;;;6.93;4.97;;;13.30;99.90;;;;;;5039746;28;20533;-68
2021/11/02 12:33:30;;;;;;;5.80;5.00;;;13.40;99.90;;;;;;5040014;28;20539;-66
2021/11/02 12:35:58;;;;;;;6.23;5.27;;;13.50;99.90;;;;;;5042756;28;20484;-70
2021/11/02 12:38:35;;;;;;;10.80;5.87;;;13.60;99.90;;;;;;5041136;28;20502;-70
2021/11/02 12:41:15;;;;;;;13.90;4.53;;;13.60;99.90;;;;;;5040021;28;20455;-69
2021/11/02 12:43:43;;;;;;;5.90;5.00;;;13.60;99.90;;;;;;5040036;28;20558;-67
2021/11/02 12:46:11;;;;;;;7.97;5.57;;;13.70;99.90;;;;;;5039570;28;20824;-70
2021/11/02 12:48:38;;;;;;;6.63;4.23;;;13.70;99.90;;;;;;5038856;28;20471;-69
2021/11/02 12:51:08;;;;;;;9.57;5.23;;;13.70;99.90;;;;;;5039490;28;20447;-70
2021/11/02 12:53:43;;;;;;;6.30;4.60;;;13.80;99.90;;;;;;5039164;28;20500;-70
2021/11/02 12:56:20;;;;;;;7.30;5.73;;;13.80;99.90;;;;;;5039238;28;20471;-68
2021/11/02 12:58:51;;;;;;;11.47;4.67;;;13.90;99.90;;;;;;5039188;28;20475;-69
2021/11/02 13:01:35;;;;;;;7.70;5.17;;;14.00;99.90;;;;;;5039423;28;20467;-70
2021/11/02 13:04:06;;;;;;;13.87;5.13;;;14.00;99.90;;;;;;5040701;28;20438;-69
2021/11/02 13:06:44;;;;;;;5.30;4.63;;;14.10;99.90;;;;;;5040453;28;20447;-70
2021/11/02 13:09:16;;;;;;;6.27;4.77;;;14.10;99.90;;;;;;5039143;28;20443;-68
2021/11/02 13:11:44;;;;;;;13.00;5.23;;;14.30;99.90;;;;;;5038936;28;20494;-70
2021/11/02 13:14:16;;;;;;;8.20;5.17;;;14.20;99.90;;;;;;5038749;28;20480;-69
2021/11/02 13:16:57;;;;;;;9.07;5.70;;;14.20;99.90;;;;;;5038437;28;20550;-70
2021/11/02 13:19:26;;;;;;;5.70;4.90;;;14.20;99.90;;;;;;5038935;28;20470;-63
2021/11/02 13:21:53;;;;;;;9.53;4.67;;;14.10;99.90;;;;;;5038147;28;20543;-71
2021/11/02 13:24:26;;;;;;;7.13;4.87;;;14.10;99.90;;;;;;5039263;28;20782;-68
2021/11/02 13:26:56;;;;;;;6.20;4.40;;;14.10;99.90;;;;;;5038495;28;20483;-70
2021/11/02 13:29:24;;;;;;;6.07;4.23;;;14.10;99.90;;;;;;5039041;28;20460;-70
2021/11/02 13:31:52;;;;;;;7.47;4.40;;;14.00;99.90;;;;;;5039968;28;20551;-65
2021/11/02 13:34:20;;;;;;;5.97;4.70;;;13.90;99.90;;;;;;5039758;28;20437;-68
2021/11/02 13:37:00;;;;;;;5.83;4.30;;;13.90;99.90;;;;;;5038532;28;20992;-70
2021/11/02 13:39:29;;;;;;;7.80;4.73;;;13.90;99.90;;;;;;5038875;28;20428;-71
2021/11/02 13:41:57;;;;;;;5.30;4.80;;;13.80;99.90;;;;;;5038278;28;20451;-70
2021/11/02 13:44:25;;;;;;;10.53;5.53;;;13.70;99.90;;;;;;5038671;28;20476;-64
2021/11/02 13:46:54;;;;;;;9.37;5.60;;;13.70;99.90;;;;;;5038377;28;20797;-68
2021/11/02 13:49:22;;;;;;;8.50;5.90;;;13.70;99.90;;;;;;5037869;28;20476;-68
2021/11/02 13:51:51;;;;;;;12.17;5.20;;;13.70;99.90;;;;;;5038159;28;20444;-66
2021/11/02 13:54:19;;;;;;;17.43;9.87;;;13.70;99.90;;;;;;5038176;28;20510;-68
2021/11/02 13:56:48;;;;;;;8.07;5.80;;;13.70;99.90;;;;;;5038009;28;20559;-69
2021/11/02 13:59:15;;;;;;;9.10;6.37;;;13.70;99.90;;;;;;5040292;28;20452;-64
2021/11/02 14:01:45;;;;;;;5.03;4.40;;;13.70;99.90;;;;;;5039731;28;20456;-70
2021/11/02 14:04:16;;;;;;;6.30;4.43;;;13.60;99.90;;;;;;5038326;28;20448;-69
2021/11/02 14:06:45;;;;;;;9.93;3.83;;;13.60;99.90;;;;;;5038212;28;20790;-69
2021/11/02 14:09:15;;;;;;;6.57;4.07;;;13.60;99.90;;;;;;5037776;28;20448;-65
2021/11/02 14:11:42;;;;;;;4.63;3.97;;;13.60;99.90;;;;;;5037793;28;20476;-69
2021/11/02 14:14:28;;;;;;;5.77;4.40;;;13.60;99.90;;;;;;5037961;28;20475;-69
2021/11/02 14:16:55;;;;;;;8.53;4.50;;;13.60;99.90;;;;;;5037883;28;20867;-70
2021/11/02 14:19:41;;;;;;;8.50;4.20;;;13.60;99.90;;;;;;5036892;28;20952;-70
2021/11/02 14:22:09;;;;;;;4.90;4.27;;;13.60;99.90;;;;;;5037371;28;20472;-71
2021/11/02 14:24:38;;;;;;;3.13;2.83;;;13.60;99.90;;;;;;5037369;28;20428;-66
2021/11/02 14:27:06;;;;;;;4.00;3.60;;;13.50;99.90;;;;;;5037396;28;20444;-68
2021/11/02 14:29:57;;;;;;;6.13;3.70;;;13.60;99.90;;;;;;5037400;28;20488;-67
2021/11/02 14:32:46;;;;;;;5.50;3.70;;;13.60;99.90;;;;;;5036932;28;20521;-68
2021/11/02 14:35:34;;;;;;;5.90;4.27;;;13.60;99.90;;;;;;5038262;28;20512;-72
2021/11/02 14:38:04;;;;;;;6.27;4.20;;;13.60;99.90;;;;;;5039742;28;20491;-69
2021/11/02 14:40:32;;;;;;;5.47;4.10;;;13.60;99.90;;;;;;5038408;28;20494;-67
2021/11/02 14:43:00;;;;;;;8.17;4.50;;;13.60;99.90;;;;;;5039629;28;20514;-69
2021/11/02 14:45:41;;;;;;;4.30;3.90;;;13.60;99.90;;;;;;5038699;28;20483;-72
2021/11/02 14:48:35;;;;;;;7.53;4.10;;;13.60;99.90;;;;;;5037536;28;20432;-68
2021/11/02 14:51:03;;;;;;;7.63;3.87;;;13.60;99.90;;;;;;5035765;28;20475;-68
2021/11/02 14:53:32;;;;;;;7.67;4.10;;;13.70;99.90;;;;;;5037349;28;20452;-66
2021/11/02 14:56:00;;;;;;;9.13;3.53;;;13.70;99.90;;;;;;5036819;28;20595;-68
2021/11/02 14:58:54;;;;;;;8.50;4.00;;;13.60;99.90;;;;;;5036332;28;20456;-69
2021/11/02 15:01:26;;;;;;;6.73;4.90;;;13.60;99.90;;;;;;5057912;23;20566;-70
2021/11/02 15:04:01;;;;;;;5.50;3.90;;;13.60;99.90;;;;;;5037548;28;20451;-67
2021/11/02 15:06:31;;;;;;;9.60;4.60;;;13.60;99.90;;;;;;5043699;23;20479;-66
2021/11/02 15:08:59;;;;;;;5.43;3.80;;;13.60;99.90;;;;;;5037003;28;20437;-68
2021/11/02 15:11:26;;;;;;;10.47;5.00;;;13.50;99.90;;;;;;5043040;23;20484;-65
2021/11/02 15:13:54;;;;;;;5.37;4.87;;;13.40;99.90;;;;;;5036843;28;20468;-67
2021/11/02 15:16:23;;;;;;;6.90;4.90;;;13.40;99.90;;;;;;5043382;23;20496;-63
2021/11/02 15:18:53;;;;;;;6.53;4.53;;;13.30;99.90;;;;;;5036371;28;20526;-69
2021/11/02 15:21:29;;;;;;;10.23;4.80;;;13.40;99.90;;;;;;5043486;23;20504;-68
2021/11/02 15:23:59;;;;;;;6.80;4.30;;;13.40;99.90;;;;;;5036343;28;20852;-69
2021/11/02 15:26:26;;;;;;;5.50;4.27;;;13.30;99.90;;;;;;5043536;23;20492;-70
2021/11/02 15:28:54;;;;;;;6.33;5.47;;;13.30;99.90;;;;;;5037387;28;20474;-69
2021/11/02 15:31:22;;;;;;;6.67;4.20;;;13.30;99.90;;;;;;5043925;23;20503;-68
2021/11/02 15:33:51;;;;;;;7.70;4.43;;;13.20;99.90;;;;;;5035796;28;20554;-68
2021/11/02 15:36:21;;;;;;;11.40;6.07;;;13.10;99.90;;;;;;5043216;23;20494;-69
2021/11/02 15:38:59;;;;;;;5.33;4.13;;;13.00;99.90;;;;;;5043294;23;20491;-69
2021/11/02 15:41:26;;;;;;;7.27;4.10;;;12.90;99.90;;;;;;5036279;28;20460;-68
2021/11/02 15:43:55;;;;;;;8.60;4.97;;;12.90;99.90;;;;;;5043080;23;20571;-69
2021/11/02 15:46:29;;;;;;;12.73;5.33;;;12.90;99.90;;;;;;5034770;28;20952;-55
2021/11/02 15:48:57;;;;;;;6.43;5.10;;;12.80;99.90;;;;;;5038927;23;20488;-62
2021/11/02 15:51:25;;;;;;;5.90;5.30;;;12.80;99.90;;;;;;5036687;28;20755;-69
2021/11/02 15:53:52;;;;;;;6.10;4.73;;;12.80;99.90;;;;;;5045701;23;20480;-71
2021/11/02 15:56:24;;;;;;;7.87;5.97;;;12.80;99.90;;;;;;5036142;28;21032;-68
2021/11/02 15:59:00;;;;;;;7.00;5.40;;;12.70;99.90;;;;;;5043333;23;20650;-70
2021/11/02 16:01:33;;;;;;;6.07;5.20;;;12.70;99.90;;;;;;5036088;28;21073;-67
2021/11/02 16:04:12;;;;;;;7.47;5.20;;;12.70;99.90;;;;;;5042903;23;20487;-63
2021/11/02 16:06:56;;;;;;;10.27;5.57;;;12.70;99.90;;;;;;5035397;28;20928;-67
2021/11/02 16:09:24;;;;;;;6.13;4.87;;;12.70;99.90;;;;;;5042756;23;20792;-66
2021/11/02 16:11:51;;;;;;;6.00;5.40;;;12.60;99.90;;;;;;5035765;28;20448;-68
2021/11/02 16:14:19;;;;;;;6.63;5.53;;;12.60;99.90;;;;;;5043132;23;20570;-67
2021/11/02 16:16:48;;;;;;;10.97;5.60;;;12.60;99.90;;;;;;5038383;28;20476;-67
2021/11/02 16:19:20;;;;;;;9.73;5.23;;;12.50;99.90;;;;;;5049111;23;20488;-65
2021/11/02 16:21:48;;;;;;;9.30;5.83;;;12.50;99.90;;;;;;5041863;28;20468;-67
2021/11/02 16:24:15;;;;;;;12.10;6.83;;;12.50;99.90;;;;;;5032229;23;20484;-69
2021/11/02 16:26:47;;;;;;;7.90;5.60;;;12.50;99.90;;;;;;5037904;28;20901;-69
2021/11/02 16:29:19;;;;;;;10.57;5.70;;;12.50;99.90;;;;;;5048696;23;20499;-69
2021/11/02 16:31:47;;;;;;;8.93;5.10;;;12.50;99.90;;;;;;5039858;28;20460;-66
2021/11/02 16:34:16;;;;;;;5.87;5.10;;;12.50;99.90;;;;;;5040237;23;20518;-69
2021/11/02 16:36:43;;;;;;;7.63;5.40;;;12.50;99.90;;;;;;5041008;23;20480;-67
2021/11/02 16:39:22;;;;;;;7.77;5.93;;;12.40;99.90;;;;;;5029862;28;20522;-61
2021/11/02 16:54:39;;;;;;;9.00;5.93;;;12.40;99.90;;;;;;5070898;23;20869;-67
2021/11/02 16:59:51;;;;;;;8.80;7.13;;;12.40;99.90;;;;;;5046159;23;20497;-68
2021/11/02 17:05:12;;;;;;;19.13;6.03;;;12.50;99.90;;;;;;5082222;23;20492;-56
2021/11/02 17:07:46;;;;;;;10.93;6.60;;;12.40;99.90;;;;;;5059596;28;20472;-52
2021/11/02 17:13:03;;;;;;;18.40;8.67;;;12.40;99.90;;;;;;5140434;23;20467;-61
2021/11/02 17:15:35;;;;;;;13.27;8.00;;;12.40;99.90;;;;;;5053067;23;20479;-65
2021/11/02 17:18:04;;;;;;;11.57;9.20;;;12.40;99.90;;;;;;5039234;28;20510;-66
2021/11/02 17:20:31;;;;;;;13.87;8.53;;;12.40;99.90;;;;;;5053811;23;20460;-43
2021/11/02 17:22:58;;;;;;;18.03;10.13;;;12.40;99.90;;;;;;5043003;28;20436;-66
2021/11/02 17:30:33;;;;;;;18.47;10.70;;;12.50;99.90;;;;;;5042491;23;20488;-69
2021/11/02 17:33:01;;;;;;;14.70;9.90;;;12.50;99.90;;;;;;5037105;28;20482;-70
2021/11/02 17:35:28;;;;;;;20.33;10.27;;;12.50;99.90;;;;;;5043875;23;20484;-68
2021/11/02 17:37:57;;;;;;;18.93;10.30;;;12.50;99.90;;;;;;5036780;28;20488;-63
2021/11/02 17:40:25;;;;;;;55.23;30.63;;;12.50;99.90;;;;;;5043999;23;20963;-67
2021/11/02 17:42:55;;;;;;;29.63;11.83;;;12.60;99.90;;;;;;5038401;28;20444;-68
2021/11/02 17:45:22;;;;;;;19.97;9.40;;;12.60;99.90;;;;;;5043658;23;20575;-69
2021/11/02 17:47:53;;;;;;;19.13;10.47;;;12.60;99.90;;;;;;5036290;28;20444;-64
2021/11/02 17:50:22;;;;;;;13.10;10.30;;;12.50;99.90;;;;;;5043851;23;20499;-67
2021/11/02 17:52:49;;;;;;;20.50;13.10;;;12.50;99.90;;;;;;5036384;28;20480;-68
2021/11/02 17:55:16;;;;;;;18.33;10.97;;;12.50;99.90;;;;;;5044323;23;20899;-70
2021/11/02 17:57:44;;;;;;;20.03;9.70;;;12.50;99.90;;;;;;5036303;28;20491;-64
2021/11/02 18:00:14;;;;;;;15.23;10.50;;;12.40;99.90;;;;;;5043399;23;20514;-64
2021/11/02 18:02:40;;;;;;;19.83;11.17;;;12.30;99.90;;;;;;5016601;28;20925;-70
2021/11/02 18:07:49;;;;;;;15.90;10.00;;;12.40;99.90;;;;;;5040268;23;20583;-67
2021/11/02 18:10:17;;;;;;;16.10;9.93;;;12.30;99.90;;;;;;5035880;28;20460;-65
2021/11/02 18:12:45;;;;;;;16.60;10.27;;;12.30;99.90;;;;;;5043689;23;20492;-68
2021/11/02 18:15:13;;;;;;;22.30;9.70;;;12.30;99.90;;;;;;5036993;28;20444;-68
2021/11/02 18:17:45;;;;;;;11.97;9.60;;;12.30;99.90;;;;;;5043137;23;20491;-64